createdAt,value
2022-10-07T00:01:14.448Z,9.90
2022-10-07T00:03:41.918Z,9.80
2022-10-07T00:06:12.401Z,9.90
2022-10-07T00:08:40.925Z,9.90
2022-10-07T00:11:09.731Z,10.00
2022-10-07T00:13:38.565Z,10.00
2022-10-07T00:16:07.073Z,9.70
2022-10-07T00:18:34.826Z,9.80
2022-10-07T00:21:07.265Z,9.80
2022-10-07T00:23:34.063Z,9.80
2022-10-07T00:26:01.758Z,9.70
2022-10-07T00:28:28.713Z,9.70
2022-10-07T00:30:59.097Z,9.70
2022-10-07T00:33:26.118Z,9.70
2022-10-07T00:35:52.882Z,9.70
2022-10-07T00:38:20.469Z,9.60
2022-10-07T00:40:47.078Z,9.60
2022-10-07T00:43:22.498Z,9.60
2022-10-07T00:45:50.225Z,9.50
2022-10-07T00:48:22.982Z,9.60
2022-10-07T00:50:51.985Z,9.50
2022-10-07T00:53:20.445Z,9.50
2022-10-07T00:55:46.994Z,9.50
2022-10-07T00:58:13.991Z,9.40
2022-10-07T01:00:40.792Z,9.40
2022-10-07T01:03:08.619Z,9.40
2022-10-07T01:05:35.197Z,9.40
2022-10-07T01:08:02.083Z,9.40
2022-10-07T01:10:35.339Z,9.40
2022-10-07T01:13:10.015Z,9.40
2022-10-07T01:15:41.088Z,9.40
2022-10-07T01:18:15.471Z,9.30
2022-10-07T01:20:49.961Z,9.20
2022-10-07T01:23:52.286Z,9.20
2022-10-07T01:26:49.493Z,9.20
2022-10-07T01:29:20.598Z,9.10
2022-10-07T01:31:53.473Z,9.20
2022-10-07T01:34:23.147Z,9.20
2022-10-07T01:36:53.433Z,9.20
2022-10-07T01:39:24.145Z,9.20
2022-10-07T01:41:52.462Z,9.20
2022-10-07T01:44:19.077Z,9.20
2022-10-07T01:46:47.034Z,9.00
2022-10-07T01:49:13.619Z,9.20
2022-10-07T01:51:41.920Z,9.10
2022-10-07T01:54:23.857Z,9.10
2022-10-07T01:57:08.325Z,9.00
2022-10-07T01:59:57.833Z,9.00
2022-10-07T02:02:34.970Z,9.00
2022-10-07T02:05:10.390Z,9.00
2022-10-07T02:07:50.648Z,9.10
2022-10-07T02:10:24.030Z,9.00
2022-10-07T02:12:57.968Z,9.00
2022-10-07T02:15:30.389Z,9.00
2022-10-07T02:18:01.903Z,9.00
2022-10-07T02:20:31.719Z,9.00
2022-10-07T02:23:01.778Z,8.90
2022-10-07T02:25:34.447Z,8.80
2022-10-07T02:28:04.753Z,8.80
2022-10-07T02:30:33.463Z,8.80
2022-10-07T02:33:03.267Z,8.80
2022-10-07T02:35:36.870Z,8.80
2022-10-07T02:38:09.339Z,8.80
2022-10-07T02:40:40.473Z,8.80
2022-10-07T02:43:16.471Z,8.80
2022-10-07T02:45:49.695Z,8.70
2022-10-07T02:48:21.099Z,8.80
2022-10-07T02:50:51.051Z,8.70
2022-10-07T02:53:19.986Z,8.70
2022-10-07T02:55:49.899Z,8.70
2022-10-07T02:58:17.961Z,8.70
2022-10-07T03:00:52.147Z,8.70
2022-10-07T03:03:19.237Z,8.70
2022-10-07T03:05:47.582Z,8.80
2022-10-07T03:08:14.337Z,8.50
2022-10-07T03:10:41.669Z,8.50
2022-10-07T03:13:08.294Z,8.50
2022-10-07T03:15:41.802Z,8.50
2022-10-07T03:18:25.321Z,8.50
2022-10-07T03:20:54.572Z,8.50
2022-10-07T03:23:21.679Z,8.50
2022-10-07T03:25:52.240Z,8.60
2022-10-07T03:28:19.898Z,8.60
2022-10-07T03:30:47.365Z,8.60
2022-10-07T03:33:13.994Z,8.50
2022-10-07T03:35:40.695Z,8.50
2022-10-07T03:38:07.837Z,8.40
2022-10-07T03:40:34.438Z,8.40
2022-10-07T03:43:01.772Z,8.40
2022-10-07T03:45:29.695Z,8.30
2022-10-07T03:47:56.935Z,8.30
2022-10-07T03:50:23.522Z,8.20
2022-10-07T03:52:50.100Z,8.30
2022-10-07T03:55:16.757Z,8.30
2022-10-07T03:57:58.411Z,8.30
2022-10-07T04:00:26.650Z,8.20
2022-10-07T04:02:53.367Z,8.20
2022-10-07T04:05:22.065Z,8.20
2022-10-07T04:07:49.970Z,8.20
2022-10-07T04:10:18.314Z,8.20
2022-10-07T04:12:45.321Z,8.20
2022-10-07T04:15:13.006Z,8.30
2022-10-07T04:17:39.623Z,8.10
2022-10-07T04:20:07.423Z,8.10
2022-10-07T04:22:34.726Z,8.10
2022-10-07T04:25:19.317Z,8.00
2022-10-07T04:27:52.230Z,8.00
2022-10-07T04:30:19.405Z,8.10
2022-10-07T04:32:46.010Z,8.00
2022-10-07T04:35:12.534Z,8.00
2022-10-07T04:37:40.679Z,8.00
2022-10-07T04:40:08.806Z,8.00
2022-10-07T04:42:53.727Z,8.00
2022-10-07T04:45:20.340Z,8.00
2022-10-07T04:47:47.214Z,8.00
2022-10-07T04:50:14.188Z,7.90
2022-10-07T04:52:41.790Z,7.80
2022-10-07T04:55:10.246Z,8.10
2022-10-07T04:57:36.769Z,8.20
2022-10-07T05:00:04.135Z,8.00
2022-10-07T05:02:31.060Z,8.00
2022-10-07T05:04:57.698Z,7.90
2022-10-07T05:07:25.138Z,7.60
2022-10-07T05:09:52.678Z,7.90
2022-10-07T05:12:19.427Z,7.90
2022-10-07T05:14:46.567Z,7.90
2022-10-07T05:17:14.019Z,7.90
2022-10-07T05:19:40.628Z,7.80
2022-10-07T05:22:07.403Z,8.00
2022-10-07T05:24:33.944Z,7.80
2022-10-07T05:27:01.177Z,7.80
2022-10-07T05:29:27.759Z,7.80
2022-10-07T05:31:54.392Z,7.80
2022-10-07T05:34:21.037Z,8.00
2022-10-07T05:36:47.649Z,7.90
2022-10-07T05:39:14.211Z,7.90
2022-10-07T05:41:45.610Z,8.00
2022-10-07T05:44:13.354Z,7.90
2022-10-07T05:46:39.892Z,8.00
2022-10-07T05:49:06.592Z,8.00
2022-10-07T05:51:33.148Z,8.00
2022-10-07T05:53:59.790Z,8.00
2022-10-07T05:56:26.348Z,8.20
2022-10-07T05:58:53.193Z,8.10
2022-10-07T06:01:22.565Z,8.00
2022-10-07T06:03:51.111Z,8.10
2022-10-07T06:06:18.318Z,8.10
2022-10-07T06:08:44.940Z,8.30
2022-10-07T06:11:31.425Z,7.50
2022-10-07T06:13:57.999Z,8.30
2022-10-07T06:16:25.833Z,8.30
2022-10-07T06:18:53.615Z,8.60
2022-10-07T06:21:22.995Z,8.30
2022-10-07T06:23:51.023Z,8.40
2022-10-07T06:26:18.051Z,8.50
2022-10-07T06:28:44.829Z,8.50
2022-10-07T06:31:13.387Z,8.60
2022-10-07T06:33:40.901Z,8.70
2022-10-07T06:36:10.700Z,8.70
2022-10-07T06:38:37.657Z,8.80
2022-10-07T06:41:06.346Z,8.90
2022-10-07T06:43:34.183Z,9.10
2022-10-07T06:46:03.013Z,9.00
2022-10-07T06:48:31.306Z,9.10
2022-10-07T06:51:02.356Z,9.30
2022-10-07T06:53:29.255Z,9.40
2022-10-07T06:55:57.127Z,9.50
2022-10-07T06:58:25.223Z,9.70
2022-10-07T07:00:52.220Z,9.80
2022-10-07T07:03:18.850Z,10.00
2022-10-07T07:05:47.015Z,9.90
2022-10-07T07:08:16.522Z,10.00
2022-10-07T07:10:43.801Z,10.90
2022-10-07T07:13:11.493Z,10.50
2022-10-07T07:15:39.252Z,10.80
2022-10-07T07:18:07.895Z,11.00
2022-10-07T07:20:36.564Z,11.10
2022-10-07T07:23:04.079Z,11.10
2022-10-07T07:25:35.000Z,11.20
2022-10-07T07:28:01.776Z,11.20
2022-10-07T07:30:28.546Z,11.30
2022-10-07T07:32:55.444Z,11.50
2022-10-07T07:35:22.263Z,11.50
2022-10-07T07:37:49.705Z,11.60
2022-10-07T07:40:16.565Z,11.70
2022-10-07T07:42:45.513Z,11.60
2022-10-07T07:45:12.592Z,11.60
2022-10-07T07:47:39.172Z,11.80
2022-10-07T07:50:07.661Z,11.90
2022-10-07T07:52:34.823Z,12.00
2022-10-07T07:55:02.589Z,12.10
2022-10-07T07:57:30.431Z,12.10
2022-10-07T07:59:59.315Z,12.00
2022-10-07T08:02:26.762Z,12.10
2022-10-07T08:04:53.640Z,12.30
2022-10-07T08:07:20.276Z,12.30
2022-10-07T08:09:46.891Z,12.50
2022-10-07T08:12:14.194Z,12.70
2022-10-07T08:14:45.370Z,12.90
2022-10-07T08:17:12.683Z,12.90
2022-10-07T08:19:39.303Z,13.10
2022-10-07T08:22:06.430Z,13.20
2022-10-07T08:24:32.999Z,13.90
2022-10-07T08:26:59.811Z,13.60
2022-10-07T08:29:26.610Z,13.80
2022-10-07T08:31:57.389Z,14.00
2022-10-07T08:34:24.893Z,13.80
2022-10-07T08:36:51.554Z,14.30
2022-10-07T08:39:18.126Z,14.10
2022-10-07T08:41:54.226Z,14.20
2022-10-07T08:44:27.903Z,14.30
2022-10-07T08:47:05.951Z,14.60
2022-10-07T08:49:39.202Z,14.60
2022-10-07T08:52:29.339Z,14.60
2022-10-07T08:54:55.969Z,14.60
2022-10-07T08:57:38.174Z,14.80
2022-10-07T09:00:08.440Z,14.70
2022-10-07T09:02:44.043Z,15.00
2022-10-07T09:05:19.486Z,15.10
2022-10-07T09:07:51.487Z,15.20
2022-10-07T09:10:33.026Z,15.40
2022-10-07T09:13:02.882Z,15.50
2022-10-07T09:15:37.701Z,14.60
2022-10-07T09:18:12.478Z,15.70
2022-10-07T09:20:43.538Z,15.80
2022-10-07T09:23:14.668Z,15.90
2022-10-07T09:25:41.546Z,16.00
2022-10-07T09:28:12.655Z,16.00
2022-10-07T09:30:41.507Z,16.00
2022-10-07T09:33:17.804Z,18.10
2022-10-07T09:35:57.360Z,16.10
2022-10-07T09:38:33.405Z,16.10
2022-10-07T09:41:19.184Z,16.30
2022-10-07T09:44:03.338Z,16.20
2022-10-07T09:46:47.001Z,16.00
2022-10-07T09:49:41.455Z,15.80
2022-10-07T09:52:16.933Z,15.80
2022-10-07T09:54:45.093Z,16.00
2022-10-07T09:57:25.759Z,16.20
2022-10-07T10:00:14.105Z,16.30
2022-10-07T10:02:45.127Z,16.30
2022-10-07T10:05:24.255Z,16.40
2022-10-07T10:07:58.832Z,16.60
2022-10-07T10:10:27.859Z,16.70
2022-10-07T10:12:56.553Z,16.70
2022-10-07T10:15:37.518Z,16.10
2022-10-07T10:18:28.628Z,16.80
2022-10-07T10:20:55.486Z,16.80
2022-10-07T10:23:30.828Z,16.60
2022-10-07T10:26:32.694Z,16.90
2022-10-07T10:29:13.078Z,16.70
2022-10-07T10:32:02.860Z,16.90
2022-10-07T10:34:37.772Z,17.00
2022-10-07T10:37:14.521Z,17.20
2022-10-07T10:39:56.687Z,17.20
2022-10-07T10:42:31.577Z,17.10
2022-10-07T10:45:10.748Z,17.10
2022-10-07T10:47:55.795Z,17.00
2022-10-07T10:50:33.023Z,17.10
2022-10-07T10:53:15.587Z,17.10
2022-10-07T10:56:10.416Z,17.20
2022-10-07T10:58:52.542Z,17.10
2022-10-07T11:01:27.173Z,17.30
2022-10-07T11:04:19.536Z,17.20
2022-10-07T11:06:49.521Z,17.00
2022-10-07T11:09:19.509Z,17.20
2022-10-07T11:11:46.720Z,17.20
2022-10-07T11:14:16.572Z,17.30
2022-10-07T11:16:47.765Z,17.20
2022-10-07T11:19:20.349Z,17.20
2022-10-07T11:21:49.419Z,17.20
2022-10-07T11:24:22.077Z,17.20
2022-10-07T11:26:56.659Z,17.30
2022-10-07T11:29:30.805Z,17.50
2022-10-07T11:32:05.871Z,17.50
2022-10-07T11:34:41.559Z,17.60
2022-10-07T11:37:11.566Z,17.70
2022-10-07T11:39:39.038Z,17.80
2022-10-07T11:42:13.117Z,17.90
2022-10-07T11:44:45.135Z,18.00
2022-10-07T11:47:15.868Z,17.80
2022-10-07T11:49:55.035Z,17.60
2022-10-07T11:52:26.007Z,17.50
2022-10-07T11:54:58.698Z,17.60
2022-10-07T11:57:30.621Z,17.60
2022-10-07T11:59:59.731Z,17.80
2022-10-07T12:02:47.599Z,17.90
2022-10-07T12:06:05.501Z,18.10
2022-10-07T12:08:34.710Z,18.40
2022-10-07T12:11:46.454Z,18.40
2022-10-07T12:14:35.014Z,18.50
2022-10-07T12:17:27.440Z,18.60
2022-10-07T12:20:33.755Z,19.70
2022-10-07T12:23:48.145Z,18.90
2022-10-07T12:26:51.261Z,18.90
2022-10-07T12:29:34.883Z,21.70
2022-10-07T12:32:02.107Z,26.30
2022-10-07T12:34:38.109Z,29.80
2022-10-07T12:37:42.658Z,32.40
2022-10-07T12:40:16.215Z,34.60
2022-10-07T12:42:50.417Z,34.90
2022-10-07T12:45:20.266Z,35.50
2022-10-07T12:47:49.476Z,36.20
2022-10-07T12:50:19.375Z,36.00
2022-10-07T12:52:52.190Z,35.20
2022-10-07T12:55:25.840Z,36.90
2022-10-07T12:58:17.120Z,36.60
2022-10-07T13:01:00.797Z,36.60
2022-10-07T13:04:06.120Z,36.60
2022-10-07T13:07:14.047Z,36.30
2022-10-07T13:10:16.938Z,36.00
2022-10-07T13:12:50.556Z,36.00
2022-10-07T13:15:32.262Z,36.00
2022-10-07T13:18:09.868Z,36.60
2022-10-07T13:20:57.720Z,37.60
2022-10-07T13:23:27.527Z,37.40
2022-10-07T13:25:57.096Z,37.50
2022-10-07T13:28:26.776Z,37.20
2022-10-07T13:30:53.508Z,37.60
2022-10-07T13:33:29.658Z,37.50
2022-10-07T13:36:10.198Z,37.80
2022-10-07T13:38:36.762Z,37.70
2022-10-07T13:41:08.870Z,35.60
2022-10-07T13:43:37.498Z,34.70
2022-10-07T13:46:08.850Z,34.40
2022-10-07T13:48:45.226Z,31.70
2022-10-07T13:51:19.611Z,29.30
2022-10-07T13:53:53.535Z,27.10
2022-10-07T13:56:22.993Z,27.10
2022-10-07T13:58:53.969Z,28.10
2022-10-07T14:01:22.573Z,30.10
2022-10-07T14:04:10.797Z,32.30
2022-10-07T14:06:53.385Z,33.50
2022-10-07T14:09:23.721Z,33.70
2022-10-07T14:11:55.279Z,31.40
2022-10-07T14:14:24.587Z,29.00
2022-10-07T14:16:58.372Z,26.60
2022-10-07T14:19:31.649Z,24.90
2022-10-07T14:22:03.833Z,23.90
2022-10-07T14:24:31.192Z,23.80
2022-10-07T14:26:57.763Z,24.30
2022-10-07T14:29:46.394Z,23.80
2022-10-07T14:32:37.403Z,23.00
2022-10-07T14:35:18.948Z,23.30
2022-10-07T14:37:45.632Z,23.60
2022-10-07T14:40:22.823Z,22.50
2022-10-07T14:42:52.422Z,21.30
2022-10-07T14:45:21.333Z,20.20
2022-10-07T14:47:48.948Z,19.40
2022-10-07T14:50:18.031Z,18.80
2022-10-07T14:52:48.700Z,18.40
2022-10-07T14:55:18.686Z,18.30
2022-10-07T14:57:47.400Z,18.10
2022-10-07T15:00:16.895Z,18.10
2022-10-07T15:02:44.070Z,17.90
2022-10-07T15:05:14.530Z,17.80
2022-10-07T15:07:43.539Z,17.70
2022-10-07T15:10:16.492Z,17.70
2022-10-07T15:12:44.006Z,17.60
2022-10-07T15:15:11.863Z,17.50
2022-10-07T15:17:40.018Z,17.50
2022-10-07T15:20:12.399Z,17.50
2022-10-07T15:26:27.848Z,17.40
2022-10-07T15:28:55.874Z,17.40
2022-10-07T15:31:23.905Z,17.40
2022-10-07T15:33:51.092Z,17.20
2022-10-07T15:36:17.797Z,17.50
2022-10-07T15:38:44.364Z,17.20
2022-10-07T15:41:29.376Z,17.20
2022-10-07T15:43:56.890Z,17.10
2022-10-07T15:46:24.109Z,17.30
2022-10-07T15:48:56.357Z,17.00
2022-10-07T15:51:23.864Z,17.00
2022-10-07T15:53:50.601Z,16.90
2022-10-07T15:56:17.217Z,16.80
2022-10-07T15:58:45.182Z,16.70
2022-10-07T16:01:11.837Z,15.90
2022-10-07T16:03:40.190Z,16.70
2022-10-07T16:06:08.972Z,16.50
2022-10-07T16:08:36.105Z,16.50
2022-10-07T16:11:04.805Z,16.50
2022-10-07T16:13:34.336Z,16.40
2022-10-07T16:16:03.283Z,16.30
2022-10-07T16:18:35.703Z,16.20
2022-10-07T16:21:05.718Z,16.00
2022-10-07T16:23:33.524Z,17.00
2022-10-07T16:26:03.981Z,16.00
2022-10-07T16:28:49.209Z,15.80
2022-10-07T16:31:16.677Z,15.70
2022-10-07T16:33:43.773Z,15.70
2022-10-07T16:36:12.664Z,15.70
2022-10-07T16:38:40.134Z,15.20
2022-10-07T16:41:06.959Z,15.10
2022-10-07T16:43:33.788Z,15.00
2022-10-07T16:46:02.312Z,14.90
2022-10-07T16:48:30.077Z,14.70
2022-10-07T16:50:57.459Z,14.70
2022-10-07T16:53:24.197Z,14.60
2022-10-07T16:55:50.822Z,14.60
2022-10-07T16:58:17.503Z,14.60
2022-10-07T17:00:44.285Z,14.30
2022-10-07T17:03:10.870Z,14.30
2022-10-07T17:05:38.525Z,14.10
2022-10-07T17:08:05.809Z,14.10
2022-10-07T17:10:32.514Z,14.00
2022-10-07T17:12:59.180Z,13.90
2022-10-07T17:15:29.045Z,13.90
2022-10-07T17:17:55.678Z,13.80
2022-10-07T17:20:22.799Z,13.70
2022-10-07T17:22:50.093Z,13.50
2022-10-07T17:25:17.047Z,13.70
2022-10-07T17:27:44.335Z,13.80
2022-10-07T17:30:15.514Z,13.60
2022-10-07T17:32:42.662Z,13.50
2022-10-07T17:35:09.525Z,13.40
2022-10-07T17:37:36.506Z,13.20
2022-10-07T17:40:04.357Z,13.40
2022-10-07T17:42:31.058Z,13.30
2022-10-07T17:44:57.752Z,13.40
2022-10-07T17:47:24.379Z,13.20
2022-10-07T17:49:53.436Z,13.10
2022-10-07T17:52:23.953Z,13.40
2022-10-07T17:54:55.756Z,13.10
2022-10-07T17:57:24.197Z,13.10
2022-10-07T17:59:52.191Z,13.10
2022-10-07T18:02:19.540Z,13.00
2022-10-07T18:04:46.399Z,12.90
2022-10-07T18:07:15.481Z,13.50
2022-10-07T18:09:42.440Z,12.90
2022-10-07T18:12:27.531Z,13.10
2022-10-07T18:15:13.880Z,12.60
2022-10-07T18:17:40.542Z,12.80
2022-10-07T18:20:11.469Z,12.70
2022-10-07T18:22:43.498Z,12.60
2022-10-07T18:25:11.373Z,12.60
2022-10-07T18:27:38.644Z,12.60
2022-10-07T18:30:08.064Z,12.50
2022-10-07T18:32:34.938Z,12.50
2022-10-07T18:35:02.318Z,12.50
2022-10-07T18:37:29.449Z,12.50
2022-10-07T18:39:56.175Z,12.40
2022-10-07T18:42:22.829Z,11.90
2022-10-07T18:44:51.573Z,12.30
2022-10-07T18:47:18.948Z,12.30
2022-10-07T18:49:45.525Z,12.30
2022-10-07T18:52:12.195Z,12.20
2022-10-07T18:54:38.776Z,12.20
2022-10-07T18:57:05.396Z,12.20
2022-10-07T18:59:32.015Z,12.10
2022-10-07T19:01:58.729Z,12.10
2022-10-07T19:04:26.251Z,12.00
2022-10-07T19:06:53.145Z,12.10
2022-10-07T19:09:21.707Z,12.00
2022-10-07T19:11:49.028Z,11.90
2022-10-07T19:14:16.092Z,12.00
2022-10-07T19:16:44.555Z,12.00
2022-10-07T19:19:13.249Z,11.90
2022-10-07T19:21:41.178Z,11.90
2022-10-07T19:24:07.891Z,11.90
2022-10-07T19:26:36.649Z,11.60
2022-10-07T19:29:04.842Z,11.60
2022-10-07T19:31:34.449Z,11.40
2022-10-07T19:34:02.834Z,11.70
2022-10-07T19:36:31.147Z,11.80
2022-10-07T19:39:01.866Z,11.70
2022-10-07T19:41:29.800Z,11.70
2022-10-07T19:43:57.118Z,11.70
2022-10-07T19:46:27.914Z,11.60
2022-10-07T19:48:56.178Z,11.70
2022-10-07T19:51:23.758Z,11.70
2022-10-07T19:53:50.663Z,11.70
2022-10-07T19:56:20.176Z,11.60
2022-10-07T19:58:49.912Z,11.70
2022-10-07T20:01:18.634Z,11.60
2022-10-07T20:03:45.555Z,11.50
2022-10-07T20:06:13.458Z,11.50
2022-10-07T20:08:42.656Z,11.30
2022-10-07T20:11:10.400Z,11.60
2022-10-07T20:13:38.898Z,11.60
2022-10-07T20:16:07.909Z,11.50
2022-10-07T20:18:36.011Z,11.50
2022-10-07T20:21:05.464Z,11.40
2022-10-07T20:23:33.121Z,11.60
2022-10-07T20:26:04.888Z,11.40
2022-10-07T20:28:31.899Z,11.40
2022-10-07T20:31:04.114Z,11.40
2022-10-07T20:33:35.755Z,11.40
2022-10-07T20:36:02.825Z,11.30
2022-10-07T20:38:29.541Z,11.30
2022-10-07T20:41:14.198Z,11.30
2022-10-07T20:43:41.034Z,11.10
2022-10-07T20:46:08.599Z,11.50
2022-10-07T20:48:35.250Z,11.90
2022-10-07T20:51:07.480Z,11.20
2022-10-07T20:53:34.621Z,11.30
2022-10-07T20:56:03.535Z,11.20
2022-10-07T20:58:31.039Z,11.20
2022-10-07T21:00:57.929Z,10.90
2022-10-07T21:03:26.064Z,11.20
2022-10-07T21:05:56.086Z,11.10
2022-10-07T21:08:23.123Z,11.60
2022-10-07T21:10:49.770Z,11.10
2022-10-07T21:13:18.535Z,11.20
2022-10-07T21:15:45.224Z,11.10
2022-10-07T21:18:11.957Z,11.00
2022-10-07T21:20:54.182Z,11.00
2022-10-07T21:23:23.569Z,11.00
2022-10-07T21:25:51.074Z,11.00
2022-10-07T21:28:18.235Z,11.00
2022-10-07T21:30:54.690Z,11.10
2022-10-07T21:33:22.219Z,11.00
2022-10-07T21:35:49.595Z,11.00
2022-10-07T21:38:16.257Z,11.00
2022-10-07T21:40:42.999Z,10.90
2022-10-07T21:43:09.566Z,10.90
2022-10-07T21:45:37.389Z,11.00
2022-10-07T21:48:04.091Z,11.10
2022-10-07T21:50:30.657Z,11.10
2022-10-07T21:52:57.906Z,10.90
2022-10-07T21:55:24.553Z,10.90
2022-10-07T21:57:51.096Z,10.90
2022-10-07T22:00:17.871Z,10.90
2022-10-07T22:02:44.732Z,11.00
2022-10-07T22:05:13.594Z,10.80
2022-10-07T22:07:58.288Z,10.80
2022-10-07T22:10:25.656Z,10.90
2022-10-07T22:12:52.259Z,11.10
2022-10-07T22:15:19.397Z,11.00
2022-10-07T22:17:46.187Z,10.90
2022-10-07T22:20:12.812Z,10.90
2022-10-07T22:22:40.396Z,10.80
2022-10-07T22:25:07.655Z,10.80
2022-10-07T22:27:35.013Z,10.80
2022-10-07T22:30:01.966Z,10.70
2022-10-07T22:32:28.495Z,10.90
2022-10-07T22:35:13.306Z,10.70
2022-10-07T22:37:40.388Z,10.70
2022-10-07T22:40:08.175Z,10.80
2022-10-07T22:42:35.445Z,10.70
2022-10-07T22:45:02.097Z,10.60
2022-10-07T22:47:28.696Z,10.80
2022-10-07T22:49:55.294Z,10.60
2022-10-07T22:52:21.931Z,10.60
2022-10-07T22:54:48.501Z,10.60
2022-10-07T22:57:15.888Z,10.90
2022-10-07T22:59:43.095Z,10.60
2022-10-07T23:02:09.885Z,10.70
2022-10-07T23:04:36.600Z,10.50
2022-10-07T23:07:03.161Z,10.80
2022-10-07T23:09:29.688Z,10.50
2022-10-07T23:11:56.286Z,10.50
2022-10-07T23:14:22.941Z,10.60
2022-10-07T23:16:50.229Z,10.60
2022-10-07T23:19:16.798Z,10.40
2022-10-07T23:21:43.916Z,10.50
2022-10-07T23:24:10.721Z,10.40
2022-10-07T23:26:37.611Z,10.40
2022-10-07T23:29:04.387Z,10.40
2022-10-07T23:31:32.540Z,10.40
2022-10-07T23:34:01.192Z,10.40
2022-10-07T23:36:27.738Z,10.40
2022-10-07T23:38:54.565Z,10.40
2022-10-07T23:41:23.532Z,10.30
2022-10-07T23:43:50.629Z,10.40
2022-10-07T23:46:18.724Z,10.30
2022-10-07T23:48:46.350Z,10.30
2022-10-07T23:51:16.018Z,10.30
2022-10-07T23:53:42.763Z,10.30
2022-10-07T23:56:09.463Z,10.30
2022-10-07T23:58:36.562Z,10.30
